sensor_id;sensor_type;location;lat;lon;timestamp;pressure;altitude;pressure_sealevel;temperature;humidity
66762;BME280;53672;48.176;16.338;2023-02-18T00:02:14;99440.31;;;12.82;66.33
66762;BME280;53672;48.176;16.338;2023-02-18T00:07:14;99439.16;;;12.88;65.87
66762;BME280;53672;48.176;16.338;2023-02-18T00:12:15;99436.75;;;12.86;65.64
66762;BME280;53672;48.176;16.338;2023-02-18T00:17:17;99443.69;;;12.92;65.52
66762;BME280;53672;48.176;16.338;2023-02-18T00:22:17;99437.22;;;12.93;65.76
66762;BME280;53672;48.176;16.338;2023-02-18T00:27:18;99455.91;;;12.90;65.66
66762;BME280;53672;48.176;16.338;2023-02-18T00:32:20;99449.13;;;12.92;65.85
66762;BME280;53672;48.176;16.338;2023-02-18T00:37:20;99450.66;;;12.98;65.55
66762;BME280;53672;48.176;16.338;2023-02-18T00:42:21;99449.66;;;12.94;66.07
66762;BME280;53672;48.176;16.338;2023-02-18T00:47:23;99470.19;;;12.95;65.95
66762;BME280;53672;48.176;16.338;2023-02-18T00:52:23;99451.00;;;12.92;66.28
66762;BME280;53672;48.176;16.338;2023-02-18T00:57:24;99464.78;;;12.95;66.23
66762;BME280;53672;48.176;16.338;2023-02-18T01:02:25;99466.63;;;13.00;66.16
66762;BME280;53672;48.176;16.338;2023-02-18T01:07:26;99463.91;;;13.00;66.21
66762;BME280;53672;48.176;16.338;2023-02-18T01:12:27;99471.28;;;12.94;66.45
66762;BME280;53672;48.176;16.338;2023-02-18T01:17:28;99472.06;;;12.95;66.69
66762;BME280;53672;48.176;16.338;2023-02-18T01:22:29;99462.66;;;12.92;66.86
66762;BME280;53672;48.176;16.338;2023-02-18T01:27:29;99450.84;;;12.83;67.30
66762;BME280;53672;48.176;16.338;2023-02-18T01:32:31;99441.69;;;12.79;67.43
66762;BME280;53672;48.176;16.338;2023-02-18T01:37:32;99442.09;;;12.91;66.87
66762;BME280;53672;48.176;16.338;2023-02-18T01:42:33;99438.59;;;12.91;67.11
66762;BME280;53672;48.176;16.338;2023-02-18T01:47:35;99428.06;;;12.89;67.17
66762;BME280;53672;48.176;16.338;2023-02-18T01:52:35;99426.63;;;12.97;66.96
66762;BME280;53672;48.176;16.338;2023-02-18T01:57:37;99421.22;;;12.97;67.04
66762;BME280;53672;48.176;16.338;2023-02-18T02:02:42;99430.94;;;12.98;66.79
66762;BME280;53672;48.176;16.338;2023-02-18T02:07:45;99436.28;;;13.03;66.67
66762;BME280;53672;48.176;16.338;2023-02-18T02:12:54;99430.06;;;13.02;66.67
66762;BME280;53672;48.176;16.338;2023-02-18T02:23:39;99428.66;;;13.05;66.58
66762;BME280;53672;48.176;16.338;2023-02-18T02:29:04;99428.75;;;13.00;67.00
66762;BME280;53672;48.176;16.338;2023-02-18T02:34:36;99423.72;;;12.88;67.26
66762;BME280;53672;48.176;16.338;2023-02-18T02:39:46;99431.97;;;12.78;67.79
66762;BME280;53672;48.176;16.338;2023-02-18T02:44:53;99414.25;;;12.67;68.16
66762;BME280;53672;48.176;16.338;2023-02-18T02:50:00;99425.13;;;12.57;68.69
66762;BME280;53672;48.176;16.338;2023-02-18T02:55:07;99434.38;;;12.56;68.76
66762;BME280;53672;48.176;16.338;2023-02-18T03:00:09;99439.81;;;12.51;68.99
66762;BME280;53672;48.176;16.338;2023-02-18T03:05:25;99436.13;;;12.42;69.26
66762;BME280;53672;48.176;16.338;2023-02-18T03:10:41;99438.25;;;12.45;69.55
66762;BME280;53672;48.176;16.338;2023-02-18T03:15:50;99424.22;;;12.43;69.32
66762;BME280;53672;48.176;16.338;2023-02-18T03:20:59;99411.72;;;12.47;69.08
66762;BME280;53672;48.176;16.338;2023-02-18T03:26:05;99410.31;;;12.54;68.79
66762;BME280;53672;48.176;16.338;2023-02-18T03:31:08;99416.81;;;12.53;68.80
66762;BME280;53672;48.176;16.338;2023-02-18T03:36:11;99407.38;;;12.51;68.86
66762;BME280;53672;48.176;16.338;2023-02-18T03:41:12;99420.94;;;12.46;69.14
66762;BME280;53672;48.176;16.338;2023-02-18T03:46:13;99426.47;;;12.31;69.89
66762;BME280;53672;48.176;16.338;2023-02-18T03:51:15;99427.56;;;12.30;69.85
66762;BME280;53672;48.176;16.338;2023-02-18T03:56:16;99430.00;;;12.31;69.89
66762;BME280;53672;48.176;16.338;2023-02-18T04:01:17;99422.50;;;12.23;70.04
66762;BME280;53672;48.176;16.338;2023-02-18T04:06:18;99430.56;;;12.28;69.69
66762;BME280;53672;48.176;16.338;2023-02-18T04:11:19;99429.25;;;12.26;69.78
66762;BME280;53672;48.176;16.338;2023-02-18T04:16:19;99445.78;;;12.19;69.74
66762;BME280;53672;48.176;16.338;2023-02-18T04:21:21;99442.53;;;12.17;69.90
66762;BME280;53672;48.176;16.338;2023-02-18T04:26:22;99449.59;;;12.13;70.20
66762;BME280;53672;48.176;16.338;2023-02-18T04:31:23;99450.16;;;12.10;70.10
66762;BME280;53672;48.176;16.338;2023-02-18T04:36:24;99459.06;;;12.15;69.86
66762;BME280;53672;48.176;16.338;2023-02-18T04:41:25;99459.56;;;12.17;69.81
66762;BME280;53672;48.176;16.338;2023-02-18T04:46:26;99462.28;;;12.12;69.99
66762;BME280;53672;48.176;16.338;2023-02-18T04:51:27;99466.13;;;12.11;69.71
66762;BME280;53672;48.176;16.338;2023-02-18T04:56:28;99474.97;;;12.17;69.57
66762;BME280;53672;48.176;16.338;2023-02-18T05:01:28;99474.41;;;12.20;69.52
66762;BME280;53672;48.176;16.338;2023-02-18T05:06:30;99485.22;;;12.20;69.31
66762;BME280;53672;48.176;16.338;2023-02-18T05:11:31;99483.63;;;12.19;69.39
66762;BME280;53672;48.176;16.338;2023-02-18T05:16:31;99493.88;;;12.22;69.28
66762;BME280;53672;48.176;16.338;2023-02-18T05:21:33;99501.59;;;12.34;68.57
66762;BME280;53672;48.176;16.338;2023-02-18T05:26:34;99501.59;;;12.34;68.81
66762;BME280;53672;48.176;16.338;2023-02-18T05:31:34;99504.63;;;12.27;69.12
66762;BME280;53672;48.176;16.338;2023-02-18T05:36:37;99502.16;;;12.31;68.84
66762;BME280;53672;48.176;16.338;2023-02-18T05:41:38;99496.75;;;12.31;68.85
66762;BME280;53672;48.176;16.338;2023-02-18T05:46:38;99508.34;;;12.36;68.72
66762;BME280;53672;48.176;16.338;2023-02-18T05:51:40;99509.13;;;12.37;68.63
66762;BME280;53672;48.176;16.338;2023-02-18T05:56:40;99506.16;;;12.38;68.79
66762;BME280;53672;48.176;16.338;2023-02-18T06:01:41;99516.66;;;12.45;68.41
66762;BME280;53672;48.176;16.338;2023-02-18T06:06:43;99513.34;;;12.53;68.38
66762;BME280;53672;48.176;16.338;2023-02-18T06:11:43;99512.78;;;12.56;68.19
66762;BME280;53672;48.176;16.338;2023-02-18T06:16:44;99517.66;;;12.54;68.64
66762;BME280;53672;48.176;16.338;2023-02-18T06:21:46;99516.56;;;12.55;68.51
66762;BME280;53672;48.176;16.338;2023-02-18T06:26:47;99515.47;;;12.56;68.76
66762;BME280;53672;48.176;16.338;2023-02-18T06:31:47;99528.19;;;12.55;69.07
66762;BME280;53672;48.176;16.338;2023-02-18T06:36:49;99521.97;;;12.55;69.08
66762;BME280;53672;48.176;16.338;2023-02-18T06:41:49;99522.53;;;12.52;69.40
66762;BME280;53672;48.176;16.338;2023-02-18T06:46:50;99512.25;;;12.54;69.36
66762;BME280;53672;48.176;16.338;2023-02-18T06:51:52;99518.69;;;12.58;69.38
66762;BME280;53672;48.176;16.338;2023-02-18T06:56:52;99522.22;;;12.58;70.09
66762;BME280;53672;48.176;16.338;2023-02-18T07:01:53;99521.38;;;12.63;69.85
66762;BME280;53672;48.176;16.338;2023-02-18T07:06:55;99505.41;;;12.61;69.94
66762;BME280;53672;48.176;16.338;2023-02-18T07:11:55;99508.34;;;12.65;70.10
66762;BME280;53672;48.176;16.338;2023-02-18T07:16:56;99522.63;;;12.70;69.94
66762;BME280;53672;48.176;16.338;2023-02-18T07:21:58;99514.81;;;12.69;70.13
66762;BME280;53672;48.176;16.338;2023-02-18T07:26:58;99515.56;;;12.75;70.12
66762;BME280;53672;48.176;16.338;2023-02-18T07:31:59;99505.53;;;12.80;69.90
66762;BME280;53672;48.176;16.338;2023-02-18T07:37:00;99501.38;;;12.88;69.60
66762;BME280;53672;48.176;16.338;2023-02-18T07:42:01;99513.47;;;12.95;69.51
66762;BME280;53672;48.176;16.338;2023-02-18T07:47:02;99508.88;;;12.96;69.58
66762;BME280;53672;48.176;16.338;2023-02-18T07:52:04;99522.28;;;13.06;69.36
66762;BME280;53672;48.176;16.338;2023-02-18T07:57:05;99511.78;;;13.04;69.13
66762;BME280;53672;48.176;16.338;2023-02-18T08:02:05;99520.41;;;13.06;69.41
66762;BME280;53672;48.176;16.338;2023-02-18T08:07:12;99525.81;;;13.11;69.16
66762;BME280;53672;48.176;16.338;2023-02-18T08:12:12;99522.22;;;13.16;69.12
66762;BME280;53672;48.176;16.338;2023-02-18T08:17:13;99503.84;;;13.13;69.18
66762;BME280;53672;48.176;16.338;2023-02-18T08:22:15;99503.22;;;13.21;69.05
66762;BME280;53672;48.176;16.338;2023-02-18T08:27:15;99511.22;;;13.31;68.63
66762;BME280;53672;48.176;16.338;2023-02-18T08:32:16;99516.00;;;13.39;68.45
66762;BME280;53672;48.176;16.338;2023-02-18T08:37:17;99503.44;;;13.48;67.88
66762;BME280;53672;48.176;16.338;2023-02-18T08:42:18;99502.22;;;13.59;67.76
66762;BME280;53672;48.176;16.338;2023-02-18T08:47:19;99500.97;;;13.70;67.41
66762;BME280;53672;48.176;16.338;2023-02-18T08:52:21;99492.41;;;13.82;66.75
66762;BME280;53672;48.176;16.338;2023-02-18T08:57:22;99493.06;;;14.11;65.59
66762;BME280;53672;48.176;16.338;2023-02-18T09:02:23;99490.50;;;14.01;65.62
66762;BME280;53672;48.176;16.338;2023-02-18T09:07:25;99480.69;;;14.05;65.60
66762;BME280;53672;48.176;16.338;2023-02-18T09:12:25;99472.72;;;13.95;65.61
66762;BME280;53672;48.176;16.338;2023-02-18T09:17:27;99476.22;;;13.96;65.36
66762;BME280;53672;48.176;16.338;2023-02-18T09:22:30;99475.19;;;14.10;65.08
66762;BME280;53672;48.176;16.338;2023-02-18T09:27:30;99464.03;;;14.31;64.14
66762;BME280;53672;48.176;16.338;2023-02-18T09:32:31;99485.88;;;14.20;64.66
66762;BME280;53672;48.176;16.338;2023-02-18T09:37:32;99486.97;;;14.01;65.33
66762;BME280;53672;48.176;16.338;2023-02-18T09:42:33;99477.16;;;14.05;65.23
66762;BME280;53672;48.176;16.338;2023-02-18T09:47:36;99476.13;;;14.01;65.37
66762;BME280;53672;48.176;16.338;2023-02-18T09:52:39;99474.91;;;14.12;64.99
66762;BME280;53672;48.176;16.338;2023-02-18T09:57:42;99464.44;;;14.05;64.87
66762;BME280;53672;48.176;16.338;2023-02-18T10:02:52;99481.22;;;14.07;64.71
66762;BME280;53672;48.176;16.338;2023-02-18T10:07:57;99467.50;;;13.99;64.95
66762;BME280;53672;48.176;16.338;2023-02-18T10:12:59;99459.09;;;14.00;64.54
66762;BME280;53672;48.176;16.338;2023-02-18T10:18:01;99456.28;;;14.05;64.33
66762;BME280;53672;48.176;16.338;2023-02-18T10:23:03;99465.13;;;14.11;64.03
66762;BME280;53672;48.176;16.338;2023-02-18T10:28:04;99468.16;;;14.09;63.91
66762;BME280;53672;48.176;16.338;2023-02-18T10:33:18;99453.47;;;14.29;63.36
66762;BME280;53672;48.176;16.338;2023-02-18T10:38:32;99453.28;;;14.58;62.32
66762;BME280;53672;48.176;16.338;2023-02-18T10:43:42;99447.97;;;14.66;61.33
66762;BME280;53672;48.176;16.338;2023-02-18T10:49:01;99434.53;;;14.75;61.22
66762;BME280;53672;48.176;16.338;2023-02-18T10:54:06;99418.53;;;14.73;60.70
66762;BME280;53672;48.176;16.338;2023-02-18T10:59:12;99426.19;;;14.71;60.61
66762;BME280;53672;48.176;16.338;2023-02-18T11:04:15;99416.75;;;14.96;59.76
66762;BME280;53672;48.176;16.338;2023-02-18T11:09:29;99385.19;;;15.86;56.21
66762;BME280;53672;48.176;16.338;2023-02-18T11:14:38;99400.50;;;16.26;54.80
66762;BME280;53672;48.176;16.338;2023-02-18T11:19:39;99395.75;;;16.09;55.07
66762;BME280;53672;48.176;16.338;2023-02-18T11:24:41;99395.38;;;15.58;56.85
66762;BME280;53672;48.176;16.338;2023-02-18T11:29:41;99378.56;;;15.42;57.30
66762;BME280;53672;48.176;16.338;2023-02-18T11:34:42;99373.72;;;15.03;57.90
66762;BME280;53672;48.176;16.338;2023-02-18T11:39:47;99364.44;;;15.04;57.87
66762;BME280;53672;48.176;16.338;2023-02-18T11:44:51;99362.75;;;14.95;57.84
66762;BME280;53672;48.176;16.338;2023-02-18T11:55:19;99344.59;;;14.68;58.11
66762;BME280;53672;48.176;16.338;2023-02-18T12:00:22;99344.25;;;14.69;57.87
66762;BME280;53672;48.176;16.338;2023-02-18T12:05:25;99340.94;;;15.00;56.74
66762;BME280;53672;48.176;16.338;2023-02-18T12:10:30;99312.69;;;16.03;53.87
66762;BME280;53672;48.176;16.338;2023-02-18T12:15:40;99296.50;;;16.60;51.51
66762;BME280;53672;48.176;16.338;2023-02-18T12:21:05;99284.75;;;17.33;48.66
66762;BME280;53672;48.176;16.338;2023-02-18T12:26:18;99283.50;;;17.56;48.15
66762;BME280;53672;48.176;16.338;2023-02-18T12:31:39;99267.91;;;17.83;47.64
66762;BME280;53672;48.176;16.338;2023-02-18T12:36:54;99264.72;;;18.65;45.58
66762;BME280;53672;48.176;16.338;2023-02-18T12:42:09;99240.00;;;18.61;45.10
66762;BME280;53672;48.176;16.338;2023-02-18T12:47:46;99242.47;;;18.75;44.92
66762;BME280;53672;48.176;16.338;2023-02-18T12:53:13;99210.84;;;18.45;44.69
66762;BME280;53672;48.176;16.338;2023-02-18T12:58:27;99226.78;;;18.34;44.27
66762;BME280;53672;48.176;16.338;2023-02-18T13:09:07;99188.00;;;17.01;47.51
66762;BME280;53672;48.176;16.338;2023-02-18T13:14:17;99186.53;;;16.95;48.03
66762;BME280;53672;48.176;16.338;2023-02-18T13:19:21;99178.06;;;16.88;48.04
66762;BME280;53672;48.176;16.338;2023-02-18T13:24:30;99158.28;;;17.34;46.67
66762;BME280;53672;48.176;16.338;2023-02-18T13:29:36;99145.69;;;17.76;45.49
66762;BME280;53672;48.176;16.338;2023-02-18T13:34:46;99116.88;;;17.66;44.79
66762;BME280;53672;48.176;16.338;2023-02-18T13:39:51;99116.47;;;17.85;44.45
66762;BME280;53672;48.176;16.338;2023-02-18T13:50:41;99135.38;;;18.19;43.01
66762;BME280;53672;48.176;16.338;2023-02-18T13:55:50;99114.66;;;17.51;43.49
66762;BME280;53672;48.176;16.338;2023-02-18T14:00:58;99087.63;;;17.38;43.64
66762;BME280;53672;48.176;16.338;2023-02-18T14:06:01;99088.03;;;17.57;43.40
66762;BME280;53672;48.176;16.338;2023-02-18T14:11:23;99086.75;;;17.63;43.21
66762;BME280;53672;48.176;16.338;2023-02-18T14:16:26;99081.03;;;17.39;43.69
66762;BME280;53672;48.176;16.338;2023-02-18T14:21:46;99071.63;;;17.28;44.02
66762;BME280;53672;48.176;16.338;2023-02-18T14:26:48;99068.31;;;17.05;44.55
66762;BME280;53672;48.176;16.338;2023-02-18T14:31:53;99064.50;;;16.89;44.72
66762;BME280;53672;48.176;16.338;2023-02-18T14:37:05;99052.53;;;16.81;44.93
66762;BME280;53672;48.176;16.338;2023-02-18T14:42:22;99048.88;;;16.60;45.84
66762;BME280;53672;48.176;16.338;2023-02-18T14:47:29;99021.16;;;16.49;45.99
66762;BME280;53672;48.176;16.338;2023-02-18T14:52:37;99026.44;;;16.29;46.82
66762;BME280;53672;48.176;16.338;2023-02-18T14:57:45;99032.19;;;16.27;47.20
66762;BME280;53672;48.176;16.338;2023-02-18T15:02:50;99031.25;;;16.23;47.40
66762;BME280;53672;48.176;16.338;2023-02-18T15:07:56;99007.06;;;16.21;47.39
66762;BME280;53672;48.176;16.338;2023-02-18T15:12:57;99018.25;;;16.20;47.64
66762;BME280;53672;48.176;16.338;2023-02-18T15:18:00;99013.47;;;16.17;47.65
66762;BME280;53672;48.176;16.338;2023-02-18T15:23:02;99008.84;;;16.09;47.45
66762;BME280;53672;48.176;16.338;2023-02-18T15:28:03;99011.38;;;15.97;47.61
66762;BME280;53672;48.176;16.338;2023-02-18T15:33:10;99007.06;;;15.87;48.27
66762;BME280;53672;48.176;16.338;2023-02-18T15:38:14;99004.31;;;15.70;48.80
66762;BME280;53672;48.176;16.338;2023-02-18T15:43:19;98992.56;;;15.44;49.49
66762;BME280;53672;48.176;16.338;2023-02-18T15:48:29;99005.91;;;15.32;49.74
66762;BME280;53672;48.176;16.338;2023-02-18T15:53:32;98991.66;;;15.17;50.23
66762;BME280;53672;48.176;16.338;2023-02-18T15:58:33;98999.72;;;15.00;50.93
66762;BME280;53672;48.176;16.338;2023-02-18T16:03:44;98988.94;;;14.87;51.43
66762;BME280;53672;48.176;16.338;2023-02-18T16:08:54;98984.31;;;14.79;51.71
66762;BME280;53672;48.176;16.338;2023-02-18T16:13:55;98970.56;;;14.75;51.83
66762;BME280;53672;48.176;16.338;2023-02-18T16:18:57;98971.91;;;14.64;52.15
66762;BME280;53672;48.176;16.338;2023-02-18T16:23:59;98979.09;;;14.38;53.33
66762;BME280;53672;48.176;16.338;2023-02-18T16:29:10;98972.69;;;14.34;53.30
66762;BME280;53672;48.176;16.338;2023-02-18T16:34:13;98976.59;;;14.28;53.45
66762;BME280;53672;48.176;16.338;2023-02-18T16:39:13;98978.94;;;14.20;53.57
66762;BME280;53672;48.176;16.338;2023-02-18T16:44:14;98975.25;;;14.16;53.36
66762;BME280;53672;48.176;16.338;2023-02-18T16:49:17;98968.81;;;14.12;53.55
66762;BME280;53672;48.176;16.338;2023-02-18T16:54:17;98977.16;;;14.16;53.23
66762;BME280;53672;48.176;16.338;2023-02-18T16:59:20;98992.50;;;14.20;52.98
66762;BME280;53672;48.176;16.338;2023-02-18T17:04:22;98995.84;;;14.17;52.74
66762;BME280;53672;48.176;16.338;2023-02-18T17:09:23;99004.50;;;14.06;52.99
66762;BME280;53672;48.176;16.338;2023-02-18T17:14:24;98996.22;;;14.11;52.61
66762;BME280;53672;48.176;16.338;2023-02-18T17:19:28;98990.94;;;14.06;52.58
66762;BME280;53672;48.176;16.338;2023-02-18T17:24:29;98995.50;;;14.19;52.01
66762;BME280;53672;48.176;16.338;2023-02-18T17:29:29;98986.69;;;14.13;52.05
66762;BME280;53672;48.176;16.338;2023-02-18T17:34:32;98989.41;;;14.13;52.05
66762;BME280;53672;48.176;16.338;2023-02-18T17:39:33;98999.94;;;14.15;52.04
66762;BME280;53672;48.176;16.338;2023-02-18T17:44:35;98994.03;;;14.13;52.11
66762;BME280;53672;48.176;16.338;2023-02-18T17:49:39;99008.56;;;14.17;51.99
66762;BME280;53672;48.176;16.338;2023-02-18T17:54:40;99000.25;;;14.13;51.91
66762;BME280;53672;48.176;16.338;2023-02-18T17:59:41;99013.81;;;14.13;51.91
66762;BME280;53672;48.176;16.338;2023-02-18T18:04:44;99003.16;;;14.17;51.87
66762;BME280;53672;48.176;16.338;2023-02-18T18:09:45;99000.13;;;14.18;52.31
66762;BME280;53672;48.176;16.338;2023-02-18T18:14:46;98999.31;;;14.18;52.76
66762;BME280;53672;48.176;16.338;2023-02-18T18:19:49;98997.47;;;14.05;53.46
66762;BME280;53672;48.176;16.338;2023-02-18T18:24:50;98996.78;;;13.99;54.10
66762;BME280;53672;48.176;16.338;2023-02-18T18:29:51;99018.47;;;13.99;54.23
66762;BME280;53672;48.176;16.338;2023-02-18T18:34:55;99013.75;;;13.91;54.57
66762;BME280;53672;48.176;16.338;2023-02-18T18:39:56;99020.88;;;13.87;55.01
66762;BME280;53672;48.176;16.338;2023-02-18T18:44:56;99021.81;;;13.83;55.30
66762;BME280;53672;48.176;16.338;2023-02-18T18:50:08;99012.69;;;13.79;55.76
66762;BME280;53672;48.176;16.338;2023-02-18T18:55:21;99024.63;;;13.78;56.00
66762;BME280;53672;48.176;16.338;2023-02-18T19:00:25;99051.03;;;13.72;56.35
66762;BME280;53672;48.176;16.338;2023-02-18T19:05:29;99009.19;;;13.64;56.58
66762;BME280;53672;48.176;16.338;2023-02-18T19:10:32;99053.81;;;13.67;56.88
66762;BME280;53672;48.176;16.338;2023-02-18T19:15:34;99072.78;;;13.53;57.39
66762;BME280;53672;48.176;16.338;2023-02-18T19:20:36;99068.97;;;13.54;57.32
66762;BME280;53672;48.176;16.338;2023-02-18T19:25:38;99071.88;;;13.44;57.87
66762;BME280;53672;48.176;16.338;2023-02-18T19:30:40;99081.31;;;13.47;58.06
66762;BME280;53672;48.176;16.338;2023-02-18T19:35:43;99082.53;;;13.54;58.13
66762;BME280;53672;48.176;16.338;2023-02-18T19:40:44;99102.88;;;13.52;58.46
66762;BME280;53672;48.176;16.338;2023-02-18T19:45:46;99114.31;;;13.49;58.87
66762;BME280;53672;48.176;16.338;2023-02-18T19:50:48;99128.06;;;13.52;58.69
66762;BME280;53672;48.176;16.338;2023-02-18T19:55:56;99127.97;;;13.57;58.64
66762;BME280;53672;48.176;16.338;2023-02-18T20:00:57;99135.78;;;13.59;58.55
66762;BME280;53672;48.176;16.338;2023-02-18T20:05:59;99139.09;;;13.56;58.85
66762;BME280;53672;48.176;16.338;2023-02-18T20:11:00;99132.75;;;13.47;59.35
66762;BME280;53672;48.176;16.338;2023-02-18T20:16:04;99135.03;;;13.40;59.65
66762;BME280;53672;48.176;16.338;2023-02-18T20:21:09;99132.72;;;13.33;59.75
66762;BME280;53672;48.176;16.338;2023-02-18T20:26:12;99130.13;;;13.28;59.98
66762;BME280;53672;48.176;16.338;2023-02-18T20:31:14;99133.00;;;13.18;60.56
66762;BME280;53672;48.176;16.338;2023-02-18T20:36:17;99129.66;;;13.07;60.70
66762;BME280;53672;48.176;16.338;2023-02-18T20:41:19;99119.00;;;12.97;61.10
66762;BME280;53672;48.176;16.338;2023-02-18T20:46:21;99144.94;;;12.98;61.15
66762;BME280;53672;48.176;16.338;2023-02-18T20:51:24;99132.91;;;12.91;61.82
66762;BME280;53672;48.176;16.338;2023-02-18T20:56:25;99123.44;;;12.88;61.86
66762;BME280;53672;48.176;16.338;2023-02-18T21:01:26;99128.38;;;12.86;61.83
66762;BME280;53672;48.176;16.338;2023-02-18T21:06:28;99133.28;;;12.84;61.59
66762;BME280;53672;48.176;16.338;2023-02-18T21:11:29;99120.69;;;12.75;61.79
66762;BME280;53672;48.176;16.338;2023-02-18T21:16:31;99132.69;;;12.68;62.13
66762;BME280;53672;48.176;16.338;2023-02-18T21:21:34;99124.38;;;12.65;62.11
66762;BME280;53672;48.176;16.338;2023-02-18T21:26:35;99121.75;;;12.60;62.40
66762;BME280;53672;48.176;16.338;2023-02-18T21:31:38;99119.56;;;12.62;62.19
66762;BME280;53672;48.176;16.338;2023-02-18T21:36:42;99124.75;;;12.58;62.14
66762;BME280;53672;48.176;16.338;2023-02-18T21:41:43;99121.31;;;12.53;62.14
66762;BME280;53672;48.176;16.338;2023-02-18T21:46:44;99143.31;;;12.46;62.61
66762;BME280;53672;48.176;16.338;2023-02-18T21:51:47;99138.25;;;12.40;62.85
66762;BME280;53672;48.176;16.338;2023-02-18T21:56:48;99137.53;;;12.34;62.81
66762;BME280;53672;48.176;16.338;2023-02-18T22:01:49;99144.91;;;12.29;63.25
66762;BME280;53672;48.176;16.338;2023-02-18T22:06:51;99155.41;;;12.30;63.09
66762;BME280;53672;48.176;16.338;2023-02-18T22:11:52;99166.00;;;12.27;63.30
66762;BME280;53672;48.176;16.338;2023-02-18T22:16:53;99170.16;;;12.19;63.63
66762;BME280;53672;48.176;16.338;2023-02-18T22:21:54;99172.41;;;12.12;64.21
66762;BME280;53672;48.176;16.338;2023-02-18T22:26:56;99172.66;;;12.15;63.99
66762;BME280;53672;48.176;16.338;2023-02-18T22:31:56;99189.41;;;12.12;64.16
66762;BME280;53672;48.176;16.338;2023-02-18T22:36:58;99188.09;;;12.10;64.41
66762;BME280;53672;48.176;16.338;2023-02-18T22:41:59;99205.97;;;12.06;64.46
66762;BME280;53672;48.176;16.338;2023-02-18T22:46:59;99208.91;;;12.09;64.37
66762;BME280;53672;48.176;16.338;2023-02-18T22:52:01;99215.47;;;12.03;64.73
66762;BME280;53672;48.176;16.338;2023-02-18T22:57:02;99223.06;;;12.01;64.92
66762;BME280;53672;48.176;16.338;2023-02-18T23:02:02;99221.31;;;12.10;64.49
66762;BME280;53672;48.176;16.338;2023-02-18T23:07:04;99221.50;;;12.19;66.10
66762;BME280;53672;48.176;16.338;2023-02-18T23:12:05;99230.63;;;12.23;64.59
66762;BME280;53672;48.176;16.338;2023-02-18T23:17:05;99235.69;;;12.30;64.04
66762;BME280;53672;48.176;16.338;2023-02-18T23:22:08;99239.72;;;12.32;64.02
66762;BME280;53672;48.176;16.338;2023-02-18T23:27:11;99238.78;;;12.42;63.99
66762;BME280;53672;48.176;16.338;2023-02-18T23:32:12;99249.66;;;12.37;64.13
66762;BME280;53672;48.176;16.338;2023-02-18T23:37:14;99250.19;;;12.39;64.25
66762;BME280;53672;48.176;16.338;2023-02-18T23:42:15;99243.25;;;12.33;64.36
66762;BME280;53672;48.176;16.338;2023-02-18T23:47:15;99244.31;;;12.32;64.64
66762;BME280;53672;48.176;16.338;2023-02-18T23:52:17;99262.06;;;12.38;64.46
66762;BME280;53672;48.176;16.338;2023-02-18T23:57:18;99266.16;;;12.35;64.65
